Time;durP1;ratioP1;P1;durP2;ratioP2;P2;SDS_P1;SDS_P2;PMS_P1;PMS_P2;Temp;Humidity;BMP_temperature;BMP_pressure;BME280_temperature;BME280_humidity;BME280_pressure;Samples;Min_cycle;Max_cycle;Signal;HPM_P1;HPM_P2
2024/01/31 05:09:22;;;;;;;0.32;0.32;;;8.30;99.90;;;;;;4953996;29;20752;-63
2024/01/31 05:11:48;;;;;;;0.30;0.30;;;8.30;99.90;;;;;;4955318;29;20180;-63
2024/01/31 05:14:14;;;;;;;0.30;0.30;;;8.40;99.90;;;;;;4955167;29;20173;-63
2024/01/31 05:16:42;;;;;;;0.70;0.70;;;8.40;99.90;;;;;;4954477;29;20192;-62
2024/01/31 05:19:11;;;;;;;0.32;0.32;;;8.50;99.90;;;;;;4953903;29;20177;-62
2024/01/31 05:21:50;;;;;;;0.30;0.30;;;8.50;99.90;;;;;;4955391;29;20224;-62
2024/01/31 05:24:16;;;;;;;0.30;0.30;;;8.50;99.90;;;;;;4955189;29;20228;-62
2024/01/31 05:26:43;;;;;;;0.30;0.30;;;8.50;99.90;;;;;;4954791;29;20197;-62
2024/01/31 05:29:09;;;;;;;0.30;0.30;;;8.50;99.90;;;;;;4955066;29;20177;-62
2024/01/31 05:31:35;;;;;;;0.40;0.40;;;8.40;99.90;;;;;;4955118;29;20189;-62
2024/01/31 05:34:00;;;;;;;0.30;0.30;;;8.50;99.90;;;;;;4955362;29;20175;-62
2024/01/31 05:36:26;;;;;;;0.40;0.40;;;8.50;99.90;;;;;;4953314;29;20291;-63
2024/01/31 05:38:51;;;;;;;0.40;0.40;;;8.50;99.90;;;;;;4955107;29;20172;-62
2024/01/31 05:41:17;;;;;;;0.40;0.40;;;8.40;99.90;;;;;;4954961;29;20205;-62
2024/01/31 05:43:43;;;;;;;0.40;0.40;;;8.40;99.90;;;;;;4955266;29;20169;-63
2024/01/31 05:46:08;;;;;;;0.40;0.40;;;8.40;99.90;;;;;;4954092;29;20536;-62
2024/01/31 05:48:34;;;;;;;0.43;0.43;;;8.40;99.90;;;;;;4954459;29;20279;-63
2024/01/31 05:50:59;;;;;;;0.30;0.30;;;8.40;99.90;;;;;;4954352;29;20173;-62
2024/01/31 05:53:25;;;;;;;0.50;0.50;;;8.40;99.90;;;;;;4954678;29;20188;-62
2024/01/31 05:55:50;;;;;;;0.50;0.50;;;8.40;99.90;;;;;;4954435;29;20200;-62
2024/01/31 05:58:17;;;;;;;0.30;0.30;;;8.40;99.90;;;;;;4954583;29;20528;-63
2024/01/31 06:00:44;;;;;;;0.45;0.45;;;8.40;99.90;;;;;;4954462;28;20256;-62
2024/01/31 06:03:10;;;;;;;0.60;0.60;;;8.40;99.90;;;;;;4954627;28;20259;-62
2024/01/31 06:05:36;;;;;;;0.53;0.53;;;8.30;99.90;;;;;;4954454;28;20275;-62
2024/01/31 06:08:02;;;;;;;0.30;0.30;;;8.30;99.90;;;;;;4954712;28;20511;-63
2024/01/31 06:10:28;;;;;;;0.70;0.70;;;8.30;99.90;;;;;;4953706;29;20185;-62
2024/01/31 06:12:54;;;;;;;0.30;0.30;;;8.20;99.90;;;;;;4953236;29;20180;-62
2024/01/31 06:15:20;;;;;;;0.30;0.30;;;8.10;99.90;;;;;;4942195;28;20233;-62
2024/01/31 06:17:46;;;;;;;0.93;0.73;;;8.00;99.90;;;;;;4954402;28;20421;-61
2024/01/31 06:20:12;;;;;;;0.30;0.30;;;8.00;99.90;;;;;;4957799;28;20202;-62
2024/01/31 06:22:38;;;;;;;0.40;0.40;;;8.00;99.90;;;;;;4958566;28;20200;-61
2024/01/31 06:25:04;;;;;;;0.50;0.50;;;7.90;99.90;;;;;;4946403;28;20631;-62
2024/01/31 06:27:30;;;;;;;0.30;0.30;;;7.90;99.90;;;;;;4957849;28;20188;-61
2024/01/31 06:29:55;;;;;;;0.38;0.38;;;7.80;99.90;;;;;;4958218;28;20654;-61
2024/01/31 06:32:29;;;;;;;0.30;0.20;;;7.80;99.90;;;;;;4958221;28;20228;-62
2024/01/31 06:34:55;;;;;;;0.40;0.40;;;7.80;99.90;;;;;;4957668;28;20185;-61
2024/01/31 06:37:25;;;;;;;0.30;0.30;;;7.80;99.90;;;;;;4958502;29;20193;-63
2024/01/31 06:39:54;;;;;;;0.60;0.60;;;7.80;99.90;;;;;;4951769;28;20407;-63
2024/01/31 06:42:20;;;;;;;0.40;0.40;;;7.80;99.90;;;;;;4950172;29;20184;-63
2024/01/31 06:44:46;;;;;;;0.30;0.30;;;7.80;99.90;;;;;;4957703;28;20187;-64
2024/01/31 06:47:12;;;;;;;0.50;0.50;;;7.80;99.90;;;;;;4956212;29;20544;-63
2024/01/31 06:49:37;;;;;;;0.50;0.50;;;7.80;99.90;;;;;;4948241;29;20639;-63
2024/01/31 06:52:05;;;;;;;0.30;0.30;;;7.90;99.90;;;;;;4958157;28;20188;-63
2024/01/31 06:54:31;;;;;;;0.35;0.35;;;8.00;99.90;;;;;;4957074;28;20613;-63
2024/01/31 06:56:57;;;;;;;0.57;0.57;;;8.00;99.90;;;;;;4957600;28;20203;-63
2024/01/31 06:59:22;;;;;;;0.30;0.30;;;7.90;99.90;;;;;;4957573;28;20200;-64
2024/01/31 07:01:48;;;;;;;0.67;0.67;;;7.90;99.90;;;;;;4957275;28;20307;-63
2024/01/31 07:04:14;;;;;;;0.50;0.50;;;7.90;99.90;;;;;;4972020;28;20516;-63
2024/01/31 07:06:39;;;;;;;0.53;0.50;;;7.90;99.90;;;;;;4957009;28;20256;-63
2024/01/31 07:09:05;;;;;;;0.30;0.30;;;7.90;99.90;;;;;;4957411;28;20197;-64
2024/01/31 07:11:30;;;;;;;0.40;0.40;;;8.00;99.90;;;;;;4957246;28;20507;-63
2024/01/31 07:13:56;;;;;;;0.30;0.30;;;7.90;99.90;;;;;;4957450;28;20219;-64
2024/01/31 07:16:22;;;;;;;0.60;0.60;;;8.00;99.90;;;;;;4956897;28;20686;-63
2024/01/31 07:18:48;;;;;;;0.73;0.73;;;7.90;99.90;;;;;;4956793;28;20516;-64
2024/01/31 07:21:24;;;;;;;0.30;0.30;;;7.90;99.90;;;;;;4956964;28;20207;-64
2024/01/31 07:23:50;;;;;;;0.30;0.30;;;7.90;99.90;;;;;;4956360;29;20661;-63
2024/01/31 07:26:28;;;;;;;0.35;0.35;;;8.00;99.90;;;;;;4956920;28;20621;-64
2024/01/31 07:28:54;;;;;;;0.30;0.30;;;8.00;99.90;;;;;;4957335;28;20200;-63
2024/01/31 07:31:19;;;;;;;0.60;0.60;;;8.00;99.90;;;;;;4956208;28;20173;-64
2024/01/31 07:33:46;;;;;;;0.30;0.30;;;8.00;99.90;;;;;;4957325;28;20412;-63
2024/01/31 07:36:12;;;;;;;0.30;0.30;;;8.00;99.90;;;;;;4956767;28;20205;-64
2024/01/31 07:38:45;;;;;;;0.40;0.40;;;8.10;99.90;;;;;;4957334;28;20176;-63
2024/01/31 07:41:11;;;;;;;0.30;0.30;;;8.10;99.90;;;;;;4955934;29;20448;-63
2024/01/31 07:43:37;;;;;;;0.30;0.30;;;8.10;99.90;;;;;;4957000;28;20272;-64
2024/01/31 07:46:04;;;;;;;0.40;0.40;;;8.10;99.90;;;;;;4956431;28;20189;-64
2024/01/31 07:48:30;;;;;;;0.30;0.30;;;8.20;99.90;;;;;;4956989;29;20658;-63
2024/01/31 07:50:55;;;;;;;0.30;0.30;;;8.20;99.90;;;;;;4955507;29;20180;-64
2024/01/31 07:53:21;;;;;;;0.40;0.40;;;8.20;99.90;;;;;;4971552;28;20180;-64
2024/01/31 07:55:47;;;;;;;0.30;0.30;;;8.30;99.90;;;;;;4956238;28;20193;-63
2024/01/31 07:58:12;;;;;;;0.40;0.40;;;8.30;99.90;;;;;;4956793;28;20179;-64
2024/01/31 08:00:38;;;;;;;0.30;0.20;;;8.30;99.90;;;;;;4956932;28;20197;-64
2024/01/31 08:03:04;;;;;;;0.30;0.20;;;8.40;99.90;;;;;;4956761;28;20172;-64
2024/01/31 08:05:29;;;;;;;0.33;0.33;;;8.40;99.90;;;;;;4956376;28;20200;-65
2024/01/31 08:07:55;;;;;;;1.07;1.07;;;8.40;99.90;;;;;;4956375;28;20189;-63
2024/01/31 08:10:20;;;;;;;0.30;0.30;;;8.40;99.90;;;;;;4956679;28;20173;-64
2024/01/31 08:12:48;;;;;;;0.30;0.30;;;8.40;99.90;;;;;;4956542;28;20177;-64
2024/01/31 08:15:13;;;;;;;0.40;0.40;;;8.40;99.90;;;;;;4956078;28;20188;-65
2024/01/31 08:17:39;;;;;;;0.30;0.30;;;8.50;99.90;;;;;;4956617;28;20177;-64
2024/01/31 08:20:06;;;;;;;0.30;0.30;;;8.50;99.90;;;;;;4956345;28;20184;-63
2024/01/31 08:22:35;;;;;;;0.30;0.30;;;8.50;99.90;;;;;;4956541;28;20177;-64
2024/01/31 08:25:01;;;;;;;0.40;0.40;;;8.50;99.90;;;;;;4956138;28;20213;-63
2024/01/31 08:27:26;;;;;;;0.30;0.30;;;8.50;99.90;;;;;;4954785;29;20701;-66
2024/01/31 08:29:52;;;;;;;0.30;0.30;;;8.50;99.90;;;;;;4955195;29;20172;-63
2024/01/31 08:32:18;;;;;;;0.40;0.40;;;8.50;99.90;;;;;;4956295;28;20555;-64
2024/01/31 08:34:44;;;;;;;0.30;0.30;;;8.50;99.90;;;;;;4955912;28;20172;-64
2024/01/31 08:37:09;;;;;;;2.80;1.23;;;8.50;99.90;;;;;;4956058;28;20201;-63
2024/01/31 08:39:35;;;;;;;0.30;0.30;;;8.50;99.90;;;;;;4955827;28;20185;-63
2024/01/31 08:42:00;;;;;;;0.30;0.30;;;8.50;99.90;;;;;;4955823;28;20189;-64
2024/01/31 08:44:26;;;;;;;0.50;0.50;;;8.60;99.90;;;;;;4955442;28;20679;-65
2024/01/31 08:46:53;;;;;;;0.50;0.50;;;8.60;99.90;;;;;;4955781;28;20200;-63
2024/01/31 08:49:20;;;;;;;0.32;0.32;;;8.70;99.90;;;;;;4955931;28;20173;-63
2024/01/31 08:51:46;;;;;;;0.68;0.68;;;8.70;99.90;;;;;;4955985;28;20173;-64
2024/01/31 08:54:12;;;;;;;0.30;0.30;;;8.80;99.90;;;;;;4955910;28;20580;-64
2024/01/31 08:56:38;;;;;;;0.50;0.50;;;8.80;99.90;;;;;;4955360;28;20488;-64
2024/01/31 08:59:03;;;;;;;0.30;0.30;;;8.90;99.90;;;;;;4955851;28;20173;-64
2024/01/31 09:01:29;;;;;;;0.53;0.53;;;9.00;99.90;;;;;;4955586;28;20300;-63
2024/01/31 09:03:55;;;;;;;0.40;0.40;;;9.10;99.90;;;;;;4955712;28;20180;-64
2024/01/31 09:06:21;;;;;;;0.30;0.30;;;9.00;99.90;;;;;;4955364;28;20277;-64
2024/01/31 09:08:48;;;;;;;0.30;0.30;;;9.10;99.90;;;;;;4954364;29;20667;-64
2024/01/31 09:11:14;;;;;;;0.50;0.50;;;9.10;99.90;;;;;;4955647;28;20200;-64
2024/01/31 09:13:40;;;;;;;0.40;0.40;;;9.20;99.90;;;;;;4955363;28;20256;-64
2024/01/31 09:16:06;;;;;;;0.50;0.50;;;9.20;99.90;;;;;;4955053;28;20189;-64
2024/01/31 09:18:32;;;;;;;0.63;0.63;;;9.20;99.90;;;;;;4955317;28;20180;-64
2024/01/31 09:20:57;;;;;;;0.83;0.67;;;9.20;99.90;;;;;;4955336;28;20202;-62
2024/01/31 09:23:23;;;;;;;0.50;0.50;;;9.30;99.90;;;;;;4955409;28;20237;-63
2024/01/31 09:25:50;;;;;;;0.40;0.40;;;9.40;99.90;;;;;;4954873;28;20191;-63
2024/01/31 09:28:15;;;;;;;0.40;0.40;;;9.40;99.90;;;;;;4955247;28;20524;-63
2024/01/31 09:30:43;;;;;;;0.60;0.60;;;9.50;99.90;;;;;;4954115;29;20179;-63
2024/01/31 09:33:09;;;;;;;0.30;0.30;;;9.50;99.90;;;;;;4955171;28;20420;-63
2024/01/31 09:35:35;;;;;;;0.30;0.30;;;9.60;99.90;;;;;;4954700;28;21048;-64
2024/01/31 09:38:01;;;;;;;0.30;0.30;;;9.60;99.90;;;;;;4955158;28;20485;-64
2024/01/31 09:40:27;;;;;;;0.57;0.57;;;9.60;99.90;;;;;;4954920;28;20704;-64
2024/01/31 09:42:54;;;;;;;0.37;0.37;;;9.70;99.90;;;;;;4955256;28;20175;-64
2024/01/31 09:45:21;;;;;;;1.30;1.20;;;9.80;99.90;;;;;;4954837;28;20414;-64
2024/01/31 09:47:49;;;;;;;0.30;0.30;;;9.90;99.90;;;;;;4954946;28;20406;-64
2024/01/31 09:50:15;;;;;;;0.30;0.30;;;9.90;99.90;;;;;;4954986;29;20403;-64
2024/01/31 09:52:41;;;;;;;0.40;0.40;;;10.00;99.90;;;;;;4954540;28;20423;-65
2024/01/31 09:55:11;;;;;;;0.40;0.40;;;10.10;99.90;;;;;;4954522;28;20751;-65
2024/01/31 09:57:39;;;;;;;0.30;0.30;;;10.20;99.90;;;;;;4953486;29;20929;-64
2024/01/31 10:00:05;;;;;;;0.30;0.30;;;10.30;99.90;;;;;;4954691;28;20427;-63
2024/01/31 10:02:31;;;;;;;0.50;0.50;;;10.30;99.90;;;;;;4953510;29;20431;-64
2024/01/31 10:04:57;;;;;;;0.80;0.73;;;10.40;99.90;;;;;;4954678;28;20710;-64
2024/01/31 10:07:30;;;;;;;0.30;0.30;;;10.60;99.90;;;;;;4954552;28;20461;-65
2024/01/31 10:09:56;;;;;;;0.70;0.70;;;10.70;99.90;;;;;;4954858;28;20207;-64
2024/01/31 10:12:22;;;;;;;0.30;0.30;;;10.80;99.90;;;;;;4954643;28;20406;-64
2024/01/31 10:14:53;;;;;;;0.30;0.20;;;10.90;99.90;;;;;;4953354;29;20494;-65
2024/01/31 10:17:22;;;;;;;0.60;0.60;;;10.90;99.90;;;;;;4954769;28;20443;-64
2024/01/31 10:19:51;;;;;;;0.30;0.30;;;11.00;99.90;;;;;;4954796;28;20462;-63
2024/01/31 10:22:17;;;;;;;0.67;0.67;;;11.00;99.90;;;;;;4954626;28;20464;-64
2024/01/31 10:24:48;;;;;;;0.50;0.50;;;11.10;99.90;;;;;;4954302;28;20981;-64
2024/01/31 10:27:14;;;;;;;0.40;0.40;;;11.20;99.90;;;;;;4954522;28;20431;-64
2024/01/31 10:29:41;;;;;;;0.30;0.30;;;11.20;99.90;;;;;;4954514;28;20483;-64
2024/01/31 10:32:06;;;;;;;0.30;0.30;;;11.30;99.90;;;;;;4954817;28;20177;-63
2024/01/31 10:34:36;;;;;;;0.30;0.30;;;11.30;99.90;;;;;;4954414;28;20450;-66
2024/01/31 10:37:04;;;;;;;0.37;0.37;;;11.30;99.90;;;;;;4954493;28;20231;-64
2024/01/31 10:39:32;;;;;;;0.40;0.40;;;11.30;99.90;;;;;;4954633;28;20535;-64
2024/01/31 10:42:00;;;;;;;0.30;0.30;;;11.40;99.90;;;;;;4954395;28;20479;-63
2024/01/31 10:44:27;;;;;;;0.30;0.30;;;11.40;99.90;;;;;;4954222;28;20444;-65
2024/01/31 10:46:53;;;;;;;0.30;0.30;;;11.40;99.90;;;;;;4954462;28;20798;-64
2024/01/31 10:49:18;;;;;;;0.30;0.30;;;11.40;99.90;;;;;;4954210;28;20398;-64
2024/01/31 10:51:48;;;;;;;0.40;0.40;;;11.50;99.90;;;;;;4954480;28;20767;-64
2024/01/31 10:54:17;;;;;;;0.30;0.30;;;11.50;99.90;;;;;;4954237;28;20173;-64
2024/01/31 10:56:45;;;;;;;0.30;0.30;;;11.60;99.90;;;;;;4954267;28;20447;-64
2024/01/31 10:59:12;;;;;;;0.30;0.20;;;11.60;99.90;;;;;;4954604;28;20916;-64
2024/01/31 11:01:37;;;;;;;0.30;0.30;;;11.50;99.90;;;;;;4952993;29;20547;-65
2024/01/31 11:04:07;;;;;;;0.83;0.57;;;11.60;99.90;;;;;;4955059;28;20463;-65
2024/01/31 11:06:40;;;;;;;0.30;0.30;;;11.70;99.90;;;;;;4957493;28;20278;-64
2024/01/31 11:09:06;;;;;;;0.30;0.30;;;11.70;99.90;;;;;;4957653;28;20537;-64
2024/01/31 11:11:33;;;;;;;0.30;0.30;;;11.70;99.90;;;;;;4957783;28;20799;-64
2024/01/31 11:14:09;;;;;;;0.30;0.30;;;11.60;99.90;;;;;;4957712;28;20443;-66
2024/01/31 11:16:34;;;;;;;0.30;0.30;;;11.60;99.90;;;;;;4955804;29;20462;-65
2024/01/31 11:19:03;;;;;;;0.40;0.40;;;11.60;99.90;;;;;;4957446;28;20895;-65
2024/01/31 11:21:37;;;;;;;0.93;0.93;;;11.50;99.90;;;;;;4957607;28;20258;-65
2024/01/31 11:24:03;;;;;;;0.30;0.30;;;11.50;99.90;;;;;;4957269;28;20425;-64
2024/01/31 11:26:35;;;;;;;0.40;0.40;;;11.50;99.90;;;;;;4956897;28;21021;-64
2024/01/31 11:29:02;;;;;;;3.63;0.87;;;11.50;99.90;;;;;;4957934;28;20189;-64
2024/01/31 11:31:28;;;;;;;0.40;0.40;;;11.40;99.90;;;;;;4957519;28;20770;-64
2024/01/31 11:33:57;;;;;;;0.30;0.30;;;11.40;99.90;;;;;;4957326;28;20468;-63
2024/01/31 11:36:23;;;;;;;0.67;0.67;;;11.40;99.90;;;;;;4956985;28;20449;-64
2024/01/31 11:38:49;;;;;;;0.73;0.73;;;11.40;99.90;;;;;;4957352;28;20958;-66
2024/01/31 11:41:15;;;;;;;1.10;1.10;;;11.40;99.90;;;;;;4956966;28;20203;-65
2024/01/31 11:43:41;;;;;;;1.53;1.53;;;11.30;99.90;;;;;;4957021;28;20740;-65
2024/01/31 11:46:07;;;;;;;0.30;0.30;;;11.40;99.90;;;;;;4956718;28;20199;-64
2024/01/31 11:48:32;;;;;;;0.30;0.30;;;11.40;99.90;;;;;;4957032;28;20176;-64
2024/01/31 11:50:58;;;;;;;0.40;0.40;;;11.60;99.90;;;;;;4957164;28;20216;-64
2024/01/31 11:53:24;;;;;;;0.30;0.30;;;11.70;99.90;;;;;;4957090;28;20910;-65
2024/01/31 11:55:51;;;;;;;0.30;0.20;;;11.80;99.90;;;;;;4956428;28;20204;-65
2024/01/31 11:58:16;;;;;;;0.87;0.87;;;11.80;99.90;;;;;;4956900;28;20486;-64
2024/01/31 12:00:42;;;;;;;0.57;0.57;;;11.80;99.90;;;;;;4956825;28;20582;-65
2024/01/31 12:03:10;;;;;;;0.30;0.30;;;11.90;99.90;;;;;;4956605;28;20195;-65
2024/01/31 12:05:35;;;;;;;0.30;0.30;;;11.90;99.90;;;;;;4956044;28;20197;-65
2024/01/31 12:08:01;;;;;;;0.30;0.30;;;11.90;99.90;;;;;;4956633;28;20444;-64
2024/01/31 12:10:28;;;;;;;0.30;0.30;;;11.90;99.90;;;;;;4956523;28;20201;-65
2024/01/31 12:12:55;;;;;;;0.30;0.30;;;11.90;99.90;;;;;;4956530;28;20546;-64
2024/01/31 12:15:22;;;;;;;0.50;0.50;;;11.90;99.90;;;;;;4954556;28;20431;-65
2024/01/31 12:17:49;;;;;;;0.83;0.83;;;11.90;99.90;;;;;;4956344;28;20428;-65
2024/01/31 12:20:16;;;;;;;1.00;1.00;;;12.00;99.90;;;;;;4956814;28;20435;-64
2024/01/31 12:22:44;;;;;;;0.40;0.40;;;12.00;99.90;;;;;;4955186;29;20417;-65
2024/01/31 12:25:10;;;;;;;0.40;0.40;;;12.00;99.90;;;;;;4954685;29;20978;-64
2024/01/31 12:27:36;;;;;;;0.47;0.40;;;12.00;99.90;;;;;;4956474;28;20507;-64
2024/01/31 12:30:02;;;;;;;0.60;0.50;;;12.00;99.90;;;;;;4956401;28;20199;-64
2024/01/31 12:32:28;;;;;;;0.33;0.33;;;12.00;99.90;;;;;;4956191;28;20228;-64
2024/01/31 12:34:54;;;;;;;0.30;0.30;;;12.00;99.90;;;;;;4956026;28;20419;-64
2024/01/31 12:37:20;;;;;;;0.30;0.30;;;12.00;99.90;;;;;;4956165;28;20203;-64
2024/01/31 12:39:46;;;;;;;0.73;0.73;;;12.00;99.90;;;;;;4956387;28;20420;-63
2024/01/31 12:42:11;;;;;;;0.73;0.73;;;12.10;99.90;;;;;;4954546;29;20223;-64
2024/01/31 12:44:37;;;;;;;0.30;0.20;;;12.10;99.90;;;;;;4954405;29;20177;-64
2024/01/31 12:47:05;;;;;;;0.40;0.40;;;12.20;99.90;;;;;;4955510;28;20539;-64
2024/01/31 12:49:38;;;;;;;0.40;0.40;;;12.20;99.90;;;;;;4956061;28;20307;-64
2024/01/31 12:52:04;;;;;;;0.53;0.53;;;12.30;99.90;;;;;;4955981;28;20422;-63
2024/01/31 12:54:30;;;;;;;0.67;0.67;;;12.30;99.90;;;;;;4955630;28;20426;-64
2024/01/31 12:56:55;;;;;;;0.30;0.30;;;12.30;99.90;;;;;;4955606;28;20755;-63
2024/01/31 12:59:23;;;;;;;1.80;1.70;;;12.20;99.90;;;;;;4955770;28;20173;-63
2024/01/31 13:01:49;;;;;;;0.60;0.60;;;12.20;99.90;;;;;;4955733;28;20622;-63
2024/01/31 13:04:14;;;;;;;0.30;0.30;;;12.20;99.90;;;;;;4955618;28;20412;-63
2024/01/31 13:06:40;;;;;;;0.30;0.30;;;12.20;99.90;;;;;;4955273;28;20440;-63
2024/01/31 13:09:06;;;;;;;0.30;0.30;;;12.20;99.90;;;;;;4955524;28;20192;-62
2024/01/31 13:11:31;;;;;;;0.60;0.60;;;12.10;99.90;;;;;;4955777;28;20267;-63
2024/01/31 13:13:57;;;;;;;0.43;0.43;;;12.10;99.90;;;;;;4955409;28;20180;-63
2024/01/31 13:16:22;;;;;;;0.60;0.60;;;11.90;99.90;;;;;;4954946;28;20254;-62
2024/01/31 13:18:48;;;;;;;0.40;0.40;;;11.80;99.90;;;;;;4955294;28;20286;-62
2024/01/31 13:21:14;;;;;;;0.40;0.40;;;11.70;99.90;;;;;;4955063;28;20258;-62
2024/01/31 13:23:39;;;;;;;0.30;0.30;;;11.60;99.90;;;;;;4955553;28;20172;-62
2024/01/31 13:26:06;;;;;;;0.83;0.83;;;11.60;99.90;;;;;;4954871;28;20198;-62
2024/01/31 13:28:32;;;;;;;0.33;0.33;;;11.60;99.90;;;;;;4954286;28;20183;-62
2024/01/31 13:30:58;;;;;;;0.30;0.30;;;11.50;99.90;;;;;;4955154;28;20897;-63
2024/01/31 13:33:23;;;;;;;0.37;0.37;;;11.50;99.90;;;;;;4955272;28;20184;-62
2024/01/31 13:35:49;;;;;;;0.40;0.40;;;11.50;99.90;;;;;;4954568;28;20218;-62
2024/01/31 13:38:14;;;;;;;0.30;0.30;;;11.50;99.90;;;;;;4955438;28;20198;-61
2024/01/31 13:40:40;;;;;;;0.50;0.50;;;11.40;99.90;;;;;;4955273;28;20680;-62
2024/01/31 13:43:05;;;;;;;0.30;0.30;;;11.40;99.90;;;;;;4954779;28;20246;-62
2024/01/31 13:45:32;;;;;;;1.70;1.60;;;11.50;99.90;;;;;;4969040;28;20203;-64
2024/01/31 13:47:57;;;;;;;0.73;0.73;;;11.60;99.90;;;;;;4954833;28;20195;-63
2024/01/31 13:50:24;;;;;;;0.40;0.40;;;11.60;99.90;;;;;;4937633;29;20834;-63
2024/01/31 13:52:49;;;;;;;0.30;0.30;;;11.70;99.90;;;;;;4954781;28;20215;-62
2024/01/31 13:55:15;;;;;;;0.50;0.50;;;11.70;99.90;;;;;;4954409;28;20455;-62
2024/01/31 13:57:41;;;;;;;0.43;0.43;;;11.80;99.90;;;;;;4954805;28;20184;-63
2024/01/31 14:00:07;;;;;;;0.30;0.30;;;11.70;99.90;;;;;;4954946;28;20179;-63
2024/01/31 14:02:32;;;;;;;0.30;0.20;;;11.80;99.90;;;;;;4954911;28;20581;-62
2024/01/31 14:04:58;;;;;;;0.40;0.40;;;11.80;99.90;;;;;;4954481;28;20467;-63
2024/01/31 14:07:23;;;;;;;0.80;0.57;;;11.80;99.90;;;;;;4954483;28;20219;-63
2024/01/31 14:09:49;;;;;;;0.30;0.30;;;11.80;99.90;;;;;;4954911;28;20262;-63
2024/01/31 14:12:15;;;;;;;0.30;0.30;;;11.80;99.90;;;;;;4954667;28;20661;-64
2024/01/31 14:14:40;;;;;;;0.30;0.30;;;11.80;99.90;;;;;;4954483;28;20635;-64
2024/01/31 14:17:06;;;;;;;0.33;0.33;;;11.70;99.90;;;;;;4954761;28;20645;-65
2024/01/31 14:19:32;;;;;;;1.83;0.50;;;11.70;99.90;;;;;;4954933;28;20193;-64
2024/01/31 14:21:58;;;;;;;0.30;0.30;;;11.70;99.90;;;;;;4954489;28;20568;-65
2024/01/31 14:24:24;;;;;;;0.77;0.40;;;11.70;99.90;;;;;;4953786;28;20674;-63
2024/01/31 14:26:49;;;;;;;1.00;0.97;;;11.70;99.90;;;;;;4954016;28;20445;-62
2024/01/31 14:29:15;;;;;;;0.40;0.40;;;11.60;99.90;;;;;;4954015;28;20184;-62
2024/01/31 14:31:44;;;;;;;0.30;0.30;;;11.60;99.90;;;;;;4954304;28;20186;-63
2024/01/31 14:34:11;;;;;;;0.30;0.30;;;11.50;99.90;;;;;;4954145;28;20176;-62
2024/01/31 14:36:45;;;;;;;1.17;0.97;;;11.40;99.90;;;;;;4953893;28;20553;-62
2024/01/31 14:39:14;;;;;;;0.30;0.30;;;11.40;99.90;;;;;;4955120;28;20511;-63
2024/01/31 14:41:41;;;;;;;0.30;0.30;;;11.30;99.90;;;;;;4958211;28;20465;-62
2024/01/31 14:44:07;;;;;;;0.53;0.53;;;11.30;99.90;;;;;;4958283;28;20422;-64
2024/01/31 14:46:32;;;;;;;0.30;0.30;;;11.30;99.90;;;;;;4957623;28;20517;-64
2024/01/31 14:48:58;;;;;;;0.30;0.30;;;11.30;99.90;;;;;;4958685;28;20623;-61
2024/01/31 14:51:23;;;;;;;0.50;0.50;;;11.30;99.90;;;;;;4958248;28;20184;-62
2024/01/31 14:53:51;;;;;;;0.40;0.40;;;11.30;99.90;;;;;;4957993;28;20183;-62
2024/01/31 14:56:20;;;;;;;0.30;0.30;;;11.20;99.90;;;;;;4957614;28;20684;-63
2024/01/31 14:58:46;;;;;;;0.30;0.30;;;11.20;99.90;;;;;;4957925;28;20445;-63
2024/01/31 15:01:12;;;;;;;1.80;0.47;;;11.20;99.90;;;;;;4957632;28;20495;-63
2024/01/31 15:03:38;;;;;;;0.63;0.63;;;11.20;99.90;;;;;;4957681;28;20179;-62
2024/01/31 15:06:04;;;;;;;0.30;0.30;;;11.30;99.90;;;;;;4957645;28;20429;-64
2024/01/31 15:08:30;;;;;;;0.60;0.50;;;11.30;99.90;;;;;;4957682;28;20195;-62
2024/01/31 15:10:55;;;;;;;0.30;0.30;;;11.30;99.90;;;;;;4957658;28;20476;-62
2024/01/31 15:13:21;;;;;;;0.30;0.30;;;11.30;99.90;;;;;;4957802;28;20917;-62
2024/01/31 15:15:47;;;;;;;0.30;0.30;;;11.30;99.90;;;;;;4957216;28;20203;-62
2024/01/31 15:18:12;;;;;;;0.67;0.53;;;11.30;99.90;;;;;;4957427;28;20606;-62
2024/01/31 15:20:38;;;;;;;3.13;2.20;;;11.30;99.90;;;;;;4957792;28;20236;-63
2024/01/31 15:23:04;;;;;;;0.37;0.37;;;11.30;99.90;;;;;;4957418;28;20182;-62
2024/01/31 15:25:30;;;;;;;0.70;0.70;;;11.30;99.90;;;;;;4956706;28;20672;-62
2024/01/31 15:27:55;;;;;;;0.30;0.20;;;11.20;99.90;;;;;;4957488;28;20904;-62
2024/01/31 15:30:21;;;;;;;0.30;0.30;;;11.20;99.90;;;;;;4957450;28;20176;-62
2024/01/31 15:32:47;;;;;;;0.30;0.30;;;11.20;99.90;;;;;;4956913;28;20190;-62
2024/01/31 15:35:13;;;;;;;0.60;0.60;;;11.20;99.90;;;;;;4956618;28;20179;-63
2024/01/31 15:37:39;;;;;;;0.30;0.30;;;11.10;99.90;;;;;;4957276;28;20430;-62
2024/01/31 15:40:06;;;;;;;0.30;0.20;;;11.00;99.90;;;;;;4957447;28;20570;-63
2024/01/31 15:42:32;;;;;;;0.30;0.30;;;10.90;99.90;;;;;;4957046;28;20471;-62
2024/01/31 15:44:57;;;;;;;0.30;0.30;;;10.80;99.90;;;;;;4956841;28;20409;-62
2024/01/31 15:47:23;;;;;;;0.30;0.30;;;10.70;99.90;;;;;;4957070;28;20571;-64
2024/01/31 15:49:49;;;;;;;0.40;0.40;;;10.60;99.90;;;;;;4956880;28;20173;-61
2024/01/31 15:52:15;;;;;;;0.30;0.30;;;10.50;99.90;;;;;;4955979;28;20228;-64
2024/01/31 15:54:41;;;;;;;1.75;0.43;;;10.50;99.90;;;;;;4956636;28;20177;-62
2024/01/31 15:57:06;;;;;;;0.30;0.30;;;10.40;99.90;;;;;;4956857;28;20202;-62
2024/01/31 15:59:33;;;;;;;0.30;0.30;;;10.40;99.90;;;;;;4956937;28;20173;-64
2024/01/31 16:01:59;;;;;;;0.50;0.50;;;10.40;99.90;;;;;;4957002;28;20204;-63
2024/01/31 16:04:24;;;;;;;0.50;0.50;;;10.40;99.90;;;;;;4956563;28;20529;-64
2024/01/31 16:06:55;;;;;;;0.60;0.60;;;10.40;99.90;;;;;;4956519;28;20200;-63
2024/01/31 16:09:21;;;;;;;0.30;0.30;;;10.40;99.90;;;;;;4956691;29;20196;-64
2024/01/31 16:11:47;;;;;;;0.30;0.30;;;10.40;99.90;;;;;;4956626;28;20189;-62
2024/01/31 16:14:17;;;;;;;0.43;0.43;;;10.40;99.90;;;;;;4956462;28;20180;-62
2024/01/31 16:16:43;;;;;;;0.30;0.30;;;10.40;99.90;;;;;;4956508;28;20536;-63
2024/01/31 16:19:10;;;;;;;0.30;0.30;;;10.40;99.90;;;;;;4956316;28;20648;-63
2024/01/31 16:21:36;;;;;;;0.30;0.30;;;10.30;99.90;;;;;;4955961;28;20686;-63
2024/01/31 16:24:01;;;;;;;0.50;0.50;;;10.30;99.90;;;;;;4956297;28;20176;-63
2024/01/31 16:26:27;;;;;;;0.90;0.90;;;10.20;99.90;;;;;;4955796;28;20195;-63
2024/01/31 16:28:52;;;;;;;0.40;0.40;;;10.20;99.90;;;;;;4956171;28;20173;-63
2024/01/31 16:31:18;;;;;;;0.40;0.40;;;10.20;99.90;;;;;;4956308;28;20212;-63
2024/01/31 16:33:44;;;;;;;0.30;0.30;;;10.10;99.90;;;;;;4956154;28;20730;-63
2024/01/31 16:36:20;;;;;;;0.40;0.40;;;10.10;99.90;;;;;;4955649;28;20193;-63
2024/01/31 16:38:45;;;;;;;0.30;0.30;;;10.00;99.90;;;;;;4956086;28;20536;-63
2024/01/31 16:41:22;;;;;;;0.57;0.57;;;9.90;99.90;;;;;;4955983;28;20288;-64
2024/01/31 16:43:48;;;;;;;1.77;1.67;;;9.80;99.90;;;;;;4956078;29;20264;-64
2024/01/31 16:46:15;;;;;;;0.50;0.50;;;9.70;99.90;;;;;;4986599;28;20579;-64
2024/01/31 16:48:45;;;;;;;0.40;0.40;;;9.70;99.90;;;;;;4956044;28;20572;-61
2024/01/31 16:51:12;;;;;;;0.30;0.30;;;9.60;99.90;;;;;;4955901;28;20183;-64
2024/01/31 16:53:38;;;;;;;0.30;0.30;;;9.60;99.90;;;;;;4955875;29;20260;-66
2024/01/31 16:56:04;;;;;;;0.30;0.30;;;9.50;99.90;;;;;;4955144;28;20226;-65
2024/01/31 16:58:29;;;;;;;0.30;0.30;;;9.50;99.90;;;;;;4986638;28;20185;-64
2024/01/31 17:00:55;;;;;;;0.60;0.60;;;9.50;99.90;;;;;;4954977;28;20200;-65
2024/01/31 17:03:21;;;;;;;0.30;0.30;;;9.50;99.90;;;;;;4954944;28;20185;-64
2024/01/31 17:05:47;;;;;;;1.83;1.27;;;9.50;99.90;;;;;;4955022;28;20620;-64
2024/01/31 17:08:15;;;;;;;0.30;0.30;;;9.50;99.90;;;;;;4955088;28;20192;-64
2024/01/31 17:10:42;;;;;;;1.40;1.30;;;9.50;99.90;;;;;;4986391;28;20178;-65
2024/01/31 17:13:13;;;;;;;0.40;0.40;;;9.50;99.90;;;;;;4955270;28;20528;-63
2024/01/31 17:15:38;;;;;;;0.30;0.30;;;9.60;99.90;;;;;;4954560;28;20734;-63
2024/01/31 17:18:04;;;;;;;0.50;0.50;;;9.50;99.90;;;;;;4970312;28;20189;-66
2024/01/31 17:20:30;;;;;;;0.30;0.30;;;9.40;99.90;;;;;;4986425;28;20643;-63
2024/01/31 17:22:56;;;;;;;0.63;0.63;;;9.50;99.90;;;;;;4955340;28;20738;-63
2024/01/31 17:25:23;;;;;;;0.30;0.30;;;9.40;99.90;;;;;;4954746;28;20716;-64
2024/01/31 17:27:49;;;;;;;0.85;0.85;;;9.40;99.90;;;;;;4953907;29;20174;-64
2024/01/31 17:30:15;;;;;;;0.30;0.30;;;9.30;99.90;;;;;;4955345;28;20317;-61
2024/01/31 17:32:40;;;;;;;0.40;0.40;;;9.30;99.90;;;;;;4954759;28;20545;-63
2024/01/31 17:35:06;;;;;;;0.50;0.50;;;9.40;99.90;;;;;;4954290;28;20423;-61
2024/01/31 17:37:32;;;;;;;0.40;0.40;;;9.30;99.90;;;;;;4954861;28;20181;-62
2024/01/31 17:39:57;;;;;;;0.37;0.37;;;9.30;99.90;;;;;;4954781;28;20169;-63
2024/01/31 17:42:26;;;;;;;0.30;0.30;;;9.30;99.90;;;;;;4954372;28;20212;-61
2024/01/31 17:44:52;;;;;;;0.30;0.30;;;9.30;99.90;;;;;;4953061;29;20180;-60
2024/01/31 17:47:18;;;;;;;0.30;0.30;;;9.30;99.90;;;;;;4954507;28;20259;-62
2024/01/31 17:49:44;;;;;;;0.40;0.40;;;9.30;99.90;;;;;;4954555;28;20666;-61
2024/01/31 17:52:10;;;;;;;0.33;0.33;;;9.30;99.90;;;;;;4985851;28;20232;-62
2024/01/31 17:54:39;;;;;;;0.30;0.30;;;9.30;99.90;;;;;;4954591;28;20186;-62